Latest Weather Observations for Terrey Hills

IDN60901

Issued at 7:35 pm EDT Saturday 25 October 2014 (issued every 10 minutes, with the page automatically refreshed every 10 minutes)

About weather observations | Map of Sydney area stations | Latest observations for Sydney area | Other Formats
Station Details ID: 066059 Name: TERREY HILLS AWS Lat: -33.69 Lon: 151.23 Height: 199.0 m
Data from the previous 72 hours. | See also: Recent months at Terrey Hills
Date/Time
EDT
Tmp

°C
App
Tmp
°C
Dew
Point
°C
Rel
Hum
%
Delta-T

°C
Wind Press
QNH
hPa
Press
MSL
hPa
Rain
since
9 am
mm
Dir
 
Spd
km/h
Gust
km/h
Spd
kts
Gust
kts
25/07:30pm 18.9 20.6 18.4 97 0.3 SSE 7 17 4 9 - - 0.0
25/07:00pm 18.6 18.1 17.9 96 0.4 S 17 26 9 14 - - 0.0
25/06:30pm 19.1 19.4 17.9 93 0.7 SE 13 24 7 13 - - 0.0
25/06:00pm 20.4 21.0 17.8 85 1.6 ESE 11 17 6 9 - - 0.0
25/05:30pm 21.8 22.5 18.0 79 2.4 ESE 11 17 6 9 - - 0.0
25/05:00pm 22.7 23.8 18.0 75 3.0 SE 9 15 5 8 - - 0.0
25/04:30pm 22.3 23.2 18.3 78 2.5 SE 11 20 6 11 - - 0.0
25/04:00pm 21.6 22.5 18.4 82 2.0 ESE 11 17 6 9 - - 0.0
25/03:30pm 22.5 22.7 17.6 74 3.1 ESE 13 19 7 10 - - 0.0
25/03:00pm 24.2 24.3 17.4 65 4.3 ESE 13 20 7 11 - - 0.0
25/02:30pm 25.2 25.9 18.9 68 4.1 ESE 13 22 7 12 - - 0.0
25/02:00pm 26.1 27.2 18.8 64 4.7 SE 11 19 6 10 - - 0.0
25/01:30pm 26.3 27.3 18.7 63 4.9 SSE 11 17 6 9 - - 0.0
25/01:00pm 27.4 28.3 18.4 58 5.8 E 11 20 6 11 - - 0.0
25/12:30pm 28.5 29.2 16.1 47 7.7 SSE 7 13 4 7 - - 0.0
25/12:00pm 27.9 28.5 15.9 48 7.4 SW 7 13 4 7 - - 0.0
25/11:30am 27.0 27.9 16.0 51 6.8 SSW 6 11 3 6 - - 0.0
25/11:00am 26.7 27.7 16.9 55 6.1 SSW 7 17 4 9 - - 0.0
25/10:30am 26.0 26.2 15.7 53 6.3 S 9 17 5 9 - - 0.0
25/10:00am 25.2 24.4 14.0 49 6.7 SW 11 22 6 12 - - 0.0
25/09:30am 24.5 22.8 13.7 51 6.4 SW 15 26 8 14 - - 0.0
25/09:00am 23.6 23.9 15.9 62 4.7 WSW 9 20 5 11 - - 0.0
25/08:30am 21.0 22.3 18.4 85 1.6 W 9 15 5 8 - - 0.0
25/08:00am 19.0 20.2 18.3 96 0.4 W 9 13 5 7 - - 0.0
25/07:30am 18.2 20.0 18.2 100 0.0 W 6 9 3 5 - - 0.0
25/07:00am 17.4 19.2 17.4 100 0.0 WSW 4 7 2 4 - - 0.0
25/06:30am 16.5 17.6 16.5 100 0.0 W 6 7 3 4 - - 0.0
25/06:00am 16.1 16.4 16.1 100 0.0 W 9 13 5 7 - - 0.0
25/05:30am 16.1 16.0 16.1 100 0.0 W 11 13 6 7 - - 0.0
25/05:00am 16.5 17.3 16.3 99 0.1 WNW 7 11 4 6 - - 0.0
25/04:30am 16.9 17.8 16.6 98 0.2 WNW 7 9 4 5 - - 0.0
25/04:00am 17.3 18.3 16.8 97 0.3 W 7 9 4 5 - - 0.0
25/03:30am 17.7 19.0 17.1 96 0.4 SSW 6 6 3 3 - - 0.0
25/03:00am 17.7 19.8 17.1 96 0.4 SW 2 7 1 4 - - 0.0
25/02:30am 18.0 18.7 17.0 94 0.6 W 9 11 5 6 - - 0.0
25/02:00am 18.5 19.8 17.0 91 0.9 W 6 7 3 4 - - 0.0
25/01:30am 19.1 20.3 16.9 87 1.3 WSW 6 7 3 4 - - 0.0
25/01:00am 19.8 21.1 17.0 84 1.7 W 6 9 3 5 - - 0.0
25/12:30am 19.7 21.0 17.1 85 1.6 WNW 6 11 3 6 - - 0.0
25/12:00am 20.2 21.3 17.2 83 1.8 W 7 9 4 5 - - 0.0
 
Date/Time
EDT
Tmp

°C
App
Tmp
°C
Dew
Point
°C
Rel
Hum
%
Delta-T

°C
Wind Press
QNH
hPa
Press
MSL
hPa
Rain
since
9 am
mm
Dir
 
Spd
km/h
Gust
km/h
Spd
kts
Gust
kts
24/11:30pm 20.9 21.7 17.3 80 2.2 NNW 9 17 5 9 - - 0.0
24/11:00pm 20.9 21.4 17.5 81 2.1 N 11 19 6 10 - - 0.0
24/10:30pm 21.0 21.6 17.8 82 2.0 N 11 17 6 9 - - 0.0
24/10:00pm 19.7 21.0 17.5 87 1.4 NW 7 13 4 7 - - 0.0
24/09:30pm 19.6 20.8 17.4 87 1.4 NNE 7 15 4 8 - - 0.0
24/09:00pm 19.7 19.8 17.5 87 1.4 NE 13 26 7 14 - - 0.0
24/08:30pm 19.6 20.2 17.6 88 1.2 NE 11 19 6 10 - - 0.0
24/08:00pm 19.6 19.8 17.6 88 1.2 NE 13 20 7 11 - - 0.0
24/07:30pm 19.7 20.6 17.5 87 1.4 NNE 9 19 5 10 - - 0.0
24/07:00pm 20.2 21.1 17.6 85 1.6 NNE 9 19 5 10 - - 0.0
24/06:30pm 20.4 20.7 17.8 85 1.6 NNE 13 19 7 10 - - 0.0
24/06:00pm 20.6 20.9 17.8 84 1.7 NE 13 24 7 13 - - 0.0
24/05:30pm 20.7 20.8 17.5 82 2.0 NE 13 24 7 13 - - 0.0
24/05:00pm 21.4 21.5 17.4 78 2.5 NE 13 28 7 15 - - 0.0
24/04:30pm 22.5 23.6 18.1 76 2.8 NE 9 24 5 13 - - 0.0
24/04:00pm 23.1 23.9 18.2 74 3.1 NE 11 17 6 9 - - 0.0
24/03:30pm 23.8 25.2 18.7 73 3.3 NNE 9 17 5 9 - - 0.0
24/03:00pm 24.0 24.8 18.2 70 3.7 NE 11 24 6 13 - - 0.0
24/02:30pm 24.1 25.1 18.7 72 3.4 NE 11 20 6 11 - - 0.0
24/02:00pm 24.5 25.5 18.7 70 3.7 NE 11 19 6 10 - - 0.0
24/01:30pm 24.7 26.5 19.5 73 3.4 NNE 9 17 5 9 - - 0.0
24/01:00pm 24.4 25.9 18.8 71 3.6 NNE 9 19 5 10 - - 0.0
24/12:30pm 25.4 26.5 17.1 60 5.2 N 7 19 4 10 - - 0.0
24/12:00pm 25.5 26.5 16.9 59 5.4 NE 7 19 4 10 - - 0.0
24/11:30am 23.2 25.2 18.7 76 2.9 ENE 6 11 3 6 - - 0.0
24/11:00am 21.8 23.8 17.8 78 2.5 S 4 7 2 4 - - 0.0
24/10:30am 20.6 21.5 17.6 83 1.9 NW 9 17 5 9 - - 0.0
24/10:00am 21.0 22.4 17.8 82 2.0 NNW 7 15 4 8 - - 0.0
24/09:30am 19.4 21.2 17.5 89 1.2 N 4 11 2 6 - - 0.0
24/09:00am 18.9 20.9 17.9 94 0.6 N 4 7 2 4 - - 0.0
24/08:30am 18.3 21.2 18.1 99 0.1 CALM 0 4 0 2 - - 0.0
24/08:00am 17.7 19.2 17.7 100 0.0 N 6 13 3 7 - - 0.0
24/07:30am 17.3 18.1 17.3 100 0.0 SE 9 19 5 10 - - 0.0
24/07:00am 16.8 17.0 16.8 100 0.0 SE 11 17 6 9 - - 0.0
24/06:30am 16.7 17.6 16.7 100 0.0 E 7 9 4 5 - - 0.0
24/06:00am 16.6 18.1 16.6 100 0.0 NNE 4 6 2 3 - - 0.0
24/05:30am 16.8 18.4 16.8 100 0.0 W 4 7 2 4 - - 0.0
24/05:00am 17.0 18.1 17.0 100 0.0 N 7 13 4 7 - - 0.0
24/04:30am 17.0 18.6 17.0 100 0.0 W 4 13 2 7 - - 0.0
24/04:00am 17.2 18.0 17.2 100 0.0 WSW 9 15 5 8 - - 0.0
24/03:30am 17.6 19.1 17.6 100 0.0 ENE 6 9 3 5 - - 0.0
24/03:00am 17.5 18.4 17.5 100 0.0 E 9 11 5 6 - - 0.0
24/02:30am 17.4 18.8 17.4 100 0.0 SE 6 9 3 5 - - 0.0
24/02:00am 17.3 18.0 17.1 99 0.1 S 9 15 5 8 - - 0.0
24/01:30am 17.1 18.7 16.9 99 0.1 SSE 4 7 2 4 - - 0.0
24/01:00am 17.5 19.3 17.3 99 0.1 SE 4 6 2 3 - - 0.0
24/12:30am 17.4 19.1 17.2 99 0.1 SSE 4 7 2 4 - - 0.0
24/12:00am 17.2 19.6 16.9 98 0.2 CALM 0 0 0 0 - - 0.0
 
Date/Time
EDT
Tmp

°C
App
Tmp
°C
Dew
Point
°C
Rel
Hum
%
Delta-T

°C
Wind Press
QNH
hPa
Press
MSL
hPa
Rain
since
9 am
mm
Dir
 
Spd
km/h
Gust
km/h
Spd
kts
Gust
kts
23/11:30pm 16.9 18.4 16.6 98 0.2 SSW 4 6 2 3 - - 0.0
23/11:00pm 16.8 18.5 16.3 97 0.3 W 2 6 1 3 - - 0.0
23/10:30pm 17.3 19.2 16.8 97 0.3 E 2 4 1 2 - - 0.0
23/10:00pm 16.9 17.9 16.3 96 0.4 ENE 6 9 3 5 - - 0.0
23/09:30pm 17.2 18.0 16.4 95 0.5 E 7 13 4 7 - - 0.0
23/09:00pm 17.5 18.8 16.2 92 0.8 ESE 4 7 2 4 - - 0.0
23/08:30pm 17.7 19.3 15.9 89 1.1 N 2 6 1 3 - - 0.0
23/08:00pm 18.1 19.4 17.0 93 0.7 N 6 15 3 8 - - 0.0
23/07:30pm 18.2 19.3 16.7 91 0.9 ESE 6 9 3 5 - - 0.0
23/07:00pm 18.6 19.3 16.2 86 1.4 E 7 9 4 5 - - 0.0
23/06:30pm 19.8 20.4 15.7 77 2.5 ESE 7 11 4 6 - - 0.0
23/06:00pm 20.4 21.2 14.7 70 3.4 ESE 4 7 2 4 - - 0.0
23/05:30pm 21.3 20.9 14.0 63 4.3 ESE 9 13 5 7 - - 0.0
23/05:00pm 22.4 21.3 13.2 56 5.3 ESE 11 17 6 9 - - 0.0
23/04:30pm 23.5 23.3 13.7 54 5.8 ESE 7 13 4 7 - - 0.0
23/04:00pm 23.2 22.4 13.9 56 5.5 E 11 17 6 9 - - 0.0
23/03:30pm 24.2 23.6 14.6 55 5.7 ESE 11 19 6 10 - - 0.0
23/03:00pm 25.2 25.1 14.9 52 6.2 E 9 15 5 8 - - 0.0
23/02:30pm 26.0 25.8 14.8 50 6.8 ESE 9 17 5 9 - - 0.0
23/02:00pm 27.3 26.9 15.3 48 7.4 ESE 11 15 6 8 - - 0.0
23/01:30pm 27.1 27.4 15.1 47 7.3 ESE 7 13 4 7 - - 0.0
23/01:00pm 26.5 26.9 16.4 53 6.3 SE 9 13 5 7 - - 0.0
23/12:30pm 27.4 28.1 15.7 48 7.2 SSE 6 11 3 6 - - 0.0
23/12:00pm 27.7 28.1 14.7 45 7.9 SSW 6 11 3 6 - - 0.0
23/11:30am 26.5 27.5 16.4 53 6.3 W 6 9 3 5 - - 0.0
23/11:00am 24.9 25.8 15.2 54 5.9 WNW 4 7 2 4 - - 0.0
23/10:30am 23.9 25.3 15.4 59 5.2 NW 2 7 1 4 - - 0.0
23/10:00am 22.3 23.2 16.1 68 3.8 W 6 9 3 5 - - 0.0
23/09:30am 20.4 21.0 14.3 68 3.6 NNW 4 6 2 3 - - 0.0
23/09:00am 19.2 19.3 13.8 71 3.1 NNW 6 9 3 5 - - 0.2
23/08:30am 17.9 17.9 13.6 76 2.5 WNW 6 11 3 6 - - 0.2
23/08:00am 16.9 17.0 12.8 77 2.3 W 4 6 2 3 - - 0.2
23/07:30am 16.1 16.8 13.4 84 1.5 WNW 2 6 1 3 - - 0.2
23/07:00am 15.1 15.3 13.0 87 1.2 NNW 4 6 2 3 - - 0.2
23/06:30am 14.4 13.5 12.6 89 1.0 NW 9 11 5 6 - - 0.2
23/06:00am 14.0 13.1 12.6 91 0.8 NW 9 11 5 6 - - 0.2
23/05:30am 13.9 13.4 12.6 92 0.7 NW 7 11 4 6 - - 0.2
23/05:00am 13.6 13.6 12.3 92 0.7 WNW 4 6 2 3 - - 0.2
23/04:30am 14.2 13.7 12.8 91 0.8 NNW 7 11 4 6 - - 0.2
23/04:00am 13.4 13.4 12.3 93 0.6 NW 4 6 2 3 - - 0.2
23/03:30am 14.0 13.6 12.4 90 0.9 NNW 6 9 3 5 - - 0.2
23/03:00am 14.6 14.1 12.6 88 1.1 N 7 11 4 6 - - 0.2
23/02:30am 14.9 14.5 12.9 88 1.1 N 7 11 4 6 - - 0.2
23/02:00am 15.1 14.0 13.1 88 1.1 N 11 17 6 9 - - 0.2
23/01:30am 15.2 14.6 13.4 89 1.0 N 9 15 5 8 - - 0.2
23/01:00am 15.3 15.1 13.5 89 1.0 N 7 15 4 8 - - 0.2
23/12:30am 15.4 15.3 13.4 88 1.1 N 6 11 3 6 - - 0.2
23/12:00am 15.4 15.4 13.6 89 1.0 NNE 6 9 3 5 - - 0.2
 
Date/Time
EDT
Tmp

°C
App
Tmp
°C
Dew
Point
°C
Rel
Hum
%
Delta-T

°C
Wind Press
QNH
hPa
Press
MSL
hPa
Rain
since
9 am
mm
Dir
 
Spd
km/h
Gust
km/h
Spd
kts
Gust
kts
22/11:30pm 15.5 15.3 13.5 88 1.1 NNE 7 13 4 7 - - 0.2
22/11:00pm 15.7 15.5 13.7 88 1.1 NNE 7 15 4 8 - - 0.2
22/10:30pm 15.8 15.2 13.5 86 1.3 NNE 9 15 5 8 - - 0.2
22/10:00pm 16.0 14.6 13.3 84 1.5 NNE 13 19 7 10 - - 0.2
22/09:30pm 16.2 15.1 13.1 82 1.7 NNE 11 19 6 10 - - 0.2
22/09:00pm 16.2 14.6 12.7 80 2.0 NNE 13 22 7 12 - - 0.2
22/08:30pm 16.3 14.7 12.7 79 2.0 NNE 13 22 7 12 - - 0.2
22/08:00pm 16.3 14.6 12.5 78 2.1 NE 13 20 7 11 - - 0.2

Latest Capital City Observations: Canberra | Sydney | Melbourne | Brisbane | Adelaide | Perth | Hobart | Darwin

Other Formats:

Comma delimited format used in spreadsheet applications
http://www.bom.gov.au/fwo/IDN60901/IDN60901.94759.axf

JavaScript Object Notation format (JSON) in row-major order
http://www.bom.gov.au/fwo/IDN60901/IDN60901.94759.json